Garden Spring, Nevada Weather observations

Data are for 10 minute period ending at time listed.
 Day   Time    Ave.   Ave.  Ave.  Vector   Max.   Stn.    Total    Solar   Ave.  
  of    of     Air    Rel.  Wind   Wind    Wind   Baro.  Precip.   Rad.    Soil  
Year   Day     Temp.  Hum.  Speed  Dir.    Gust   Pres.                    Temp. 
2016   (PST)    F      %     mph   deg.    mph     mb.     in.     W/m2     F    
--------------------------------------------------------------------------------- 
 267   21:00   55.1    32    2.8   260      8.1   853.7    0.00       0    75.3  
 267   22:00   53.2    34    3.2   263      6.4   854.0    0.00       0    74.2  
 267   23:00   52.9    36    3.9   278      6.9   854.2    0.00       0    73.2  
 268    0:00   52.0    39    4.0   277      6.9   854.3    0.00       0    72.2  
 268    1:00   52.0    38    3.2   276      7.1   854.7    0.00       0    71.2  
 268    2:00   54.3    34    2.0   197      5.7   854.6    0.00       0    70.4  
 268    3:00   53.0    36    3.3   316      7.3   854.8    0.00       0    69.7  
 268    4:00   50.4    40    3.1   271      5.4   855.2    0.00       0    68.8  
 268    5:00   51.3    38    1.6   182      7.5   855.4    0.00       0    68.1  
 268    6:00   52.8    36    4.6   253      9.5   855.7    0.00      17    67.8  
 268    7:00   60.3    30    4.3   229     12.4   856.3    0.00     179    67.9  
 268    8:00   63.4    28    5.2   308     22.4   856.6    0.00     383    67.6  
 268    9:00   66.2    26    7.0   338     17.1   856.8    0.00     569    67.6  
 268   10:00   69.1    23    5.4    23     12.6   857.1    0.00     718    68.2  
 268   11:00   70.8    21    5.7   119     14.3   856.9    0.00     811    69.3  
 268   12:00   72.3    19    5.8   120     14.1   856.9    0.00     842    71.5  
 268   13:00   73.5    17    6.7   151     14.9   856.6    0.00     807    74.1  
 268   14:00   74.3    17    5.4   156     11.9   856.3    0.00     713    76.6  
 268   15:00   75.4    16    4.7   163     10.8   856.1    0.00     564    78.6  
 268   16:00   75.6    16    4.6   173     11.4   856.1    0.00     377    79.8  
 268   17:00   74.4    17    4.0   180      9.6   856.5    0.00     176    80.1  
 268   18:00   67.4    21    3.0   207      7.3   856.9    0.00       7    79.5  
 268   19:00   64.5    25    3.7   340     10.7   857.6    0.00       0    79.0  
 268   20:00   64.0    29    7.8    11     20.4   858.5    0.00       0    78.2  

Return to Garden Spring, Nevada graphs page.


Western Regional Climate Center,wrcc@dri.edu